sensor_id;sensor_type;location;lat;lon;timestamp;pressure;altitude;pressure_sealevel;temperature;humidity
21401;BME280;18038;50.166;18.908;2022-10-03T00:02:01;97847.53;;;7.42;80.07
21401;BME280;18038;50.166;18.908;2022-10-03T00:05:30;97852.03;;;7.42;80.32
21401;BME280;18038;50.166;18.908;2022-10-03T00:13:01;97844.06;;;7.42;79.97
21401;BME280;18038;50.166;18.908;2022-10-03T00:16:24;97850.09;;;7.36;80.13
21401;BME280;18038;50.166;18.908;2022-10-03T00:19:57;97840.47;;;7.34;80.52
21401;BME280;18038;50.166;18.908;2022-10-03T00:23:16;97841.13;;;7.37;80.68
21401;BME280;18038;50.166;18.908;2022-10-03T00:26:52;97836.38;;;7.47;80.49
21401;BME280;18038;50.166;18.908;2022-10-03T00:30:45;97836.38;;;7.47;80.24
21401;BME280;18038;50.166;18.908;2022-10-03T00:34:36;97828.31;;;7.55;80.16
21401;BME280;18038;50.166;18.908;2022-10-03T00:38:31;97829.63;;;7.59;80.09
21401;BME280;18038;50.166;18.908;2022-10-03T00:42:57;97837.97;;;7.71;79.63
21401;BME280;18038;50.166;18.908;2022-10-03T00:47:10;97832.50;;;7.72;79.59
21401;BME280;18038;50.166;18.908;2022-10-03T00:51:24;97830.81;;;7.71;79.86
21401;BME280;18038;50.166;18.908;2022-10-03T00:55:20;97824.59;;;7.79;79.79
21401;BME280;18038;50.166;18.908;2022-10-03T00:59:15;97815.78;;;7.78;79.55
21401;BME280;18038;50.166;18.908;2022-10-03T01:03:22;97821.56;;;7.82;79.38
21401;BME280;18038;50.166;18.908;2022-10-03T01:07:10;97813.31;;;7.92;78.92
21401;BME280;18038;50.166;18.908;2022-10-03T01:11:14;97817.28;;;7.96;78.90
21401;BME280;18038;50.166;18.908;2022-10-03T01:15:06;97807.56;;;7.88;79.08
21401;BME280;18038;50.166;18.908;2022-10-03T01:18:51;97816.81;;;7.92;79.11
21401;BME280;18038;50.166;18.908;2022-10-03T01:22:28;97812.06;;;7.88;78.78
21401;BME280;18038;50.166;18.908;2022-10-03T01:26:13;97806.66;;;7.96;78.65
21401;BME280;18038;50.166;18.908;2022-10-03T01:29:46;97806.81;;;7.94;78.62
21401;BME280;18038;50.166;18.908;2022-10-03T01:33:15;97812.94;;;7.95;79.04
21401;BME280;18038;50.166;18.908;2022-10-03T01:36:35;97815.34;;;7.90;78.84
21401;BME280;18038;50.166;18.908;2022-10-03T01:39:54;97816.00;;;7.92;79.23
21401;BME280;18038;50.166;18.908;2022-10-03T01:43:13;97807.19;;;7.91;79.21
21401;BME280;18038;50.166;18.908;2022-10-03T01:46:37;97811.13;;;7.95;78.99
21401;BME280;18038;50.166;18.908;2022-10-03T01:49:53;97811.38;;;8.00;79.04
21401;BME280;18038;50.166;18.908;2022-10-03T01:53:13;97812.59;;;7.98;78.87
21401;BME280;18038;50.166;18.908;2022-10-03T01:56:34;97816.09;;;7.98;78.73
21401;BME280;18038;50.166;18.908;2022-10-03T01:59:56;97813.13;;;8.08;78.41
21401;BME280;18038;50.166;18.908;2022-10-03T02:03:23;97808.19;;;8.05;78.26
21401;BME280;18038;50.166;18.908;2022-10-03T02:06:44;97808.19;;;8.05;78.48
21401;BME280;18038;50.166;18.908;2022-10-03T02:10:05;97817.72;;;7.99;78.45
21401;BME280;18038;50.166;18.908;2022-10-03T02:13:29;97816.00;;;8.07;78.48
21401;BME280;18038;50.166;18.908;2022-10-03T02:16:55;97820.41;;;8.14;78.57
21401;BME280;18038;50.166;18.908;2022-10-03T02:20:23;97824.31;;;8.18;78.32
21401;BME280;18038;50.166;18.908;2022-10-03T02:23:40;97822.03;;;8.15;78.32
21401;BME280;18038;50.166;18.908;2022-10-03T02:27:10;97822.69;;;8.17;77.99
21401;BME280;18038;50.166;18.908;2022-10-03T02:30:50;97825.63;;;8.22;77.92
21401;BME280;18038;50.166;18.908;2022-10-03T02:34:24;97805.59;;;8.27;77.56
21401;BME280;18038;50.166;18.908;2022-10-03T02:38:09;97825.69;;;8.29;77.39
21401;BME280;18038;50.166;18.908;2022-10-03T02:45:50;97824.69;;;8.30;77.08
21401;BME280;18038;50.166;18.908;2022-10-03T02:49:36;97822.03;;;8.30;76.98
21401;BME280;18038;50.166;18.908;2022-10-03T02:58:02;97834.69;;;8.28;77.60
21401;BME280;18038;50.166;18.908;2022-10-03T03:02:06;97821.94;;;8.23;77.64
21401;BME280;18038;50.166;18.908;2022-10-03T03:10:00;97826.31;;;8.31;77.54
21401;BME280;18038;50.166;18.908;2022-10-03T03:17:31;97821.19;;;8.30;77.82
21401;BME280;18038;50.166;18.908;2022-10-03T03:20:55;97815.41;;;8.26;77.67
21401;BME280;18038;50.166;18.908;2022-10-03T03:24:46;97824.59;;;8.23;77.41
21401;BME280;18038;50.166;18.908;2022-10-03T03:28:36;97831.00;;;8.29;77.44
21401;BME280;18038;50.166;18.908;2022-10-03T03:32:04;97826.16;;;8.33;76.87
21401;BME280;18038;50.166;18.908;2022-10-03T03:35:33;97830.56;;;8.26;77.52
21401;BME280;18038;50.166;18.908;2022-10-03T03:39:02;97831.16;;;8.42;77.01
21401;BME280;18038;50.166;18.908;2022-10-03T03:42:38;97834.09;;;8.48;76.51
21401;BME280;18038;50.166;18.908;2022-10-03T03:46:15;97838.44;;;8.49;76.44
21401;BME280;18038;50.166;18.908;2022-10-03T03:49:54;97834.03;;;8.41;76.61
21401;BME280;18038;50.166;18.908;2022-10-03T03:57:49;97828.44;;;8.36;76.25
21401;BME280;18038;50.166;18.908;2022-10-03T04:01:40;97837.31;;;8.43;76.29
21401;BME280;18038;50.166;18.908;2022-10-03T04:05:23;97833.66;;;8.44;76.42
21401;BME280;18038;50.166;18.908;2022-10-03T04:09:01;97827.78;;;8.34;76.56
21401;BME280;18038;50.166;18.908;2022-10-03T04:13:29;97822.09;;;8.37;76.65
21401;BME280;18038;50.166;18.908;2022-10-03T04:17:07;97824.22;;;8.41;76.34
21401;BME280;18038;50.166;18.908;2022-10-03T04:20:59;97828.94;;;8.25;76.56
21401;BME280;18038;50.166;18.908;2022-10-03T04:24:39;97823.94;;;8.21;76.50
21401;BME280;18038;50.166;18.908;2022-10-03T04:28:13;97836.25;;;8.22;77.12
21401;BME280;18038;50.166;18.908;2022-10-03T04:31:47;97831.38;;;8.26;76.94
21401;BME280;18038;50.166;18.908;2022-10-03T04:35:27;97821.19;;;8.30;76.82
21401;BME280;18038;50.166;18.908;2022-10-03T04:38:59;97832.56;;;8.23;76.82
21401;BME280;18038;50.166;18.908;2022-10-03T04:42:27;97832.22;;;8.12;76.80
21401;BME280;18038;50.166;18.908;2022-10-03T04:46:04;97830.13;;;8.22;77.18
21401;BME280;18038;50.166;18.908;2022-10-03T04:49:33;97831.47;;;8.18;76.50
21401;BME280;18038;50.166;18.908;2022-10-03T04:52:50;97840.00;;;8.13;76.23
21401;BME280;18038;50.166;18.908;2022-10-03T04:56:33;97840.28;;;7.89;75.95
21401;BME280;18038;50.166;18.908;2022-10-03T04:59:58;97843.03;;;7.95;76.66
21401;BME280;18038;50.166;18.908;2022-10-03T05:03:17;97835.06;;;7.95;76.60
21401;BME280;18038;50.166;18.908;2022-10-03T05:06:44;97851.50;;;7.99;76.30
21401;BME280;18038;50.166;18.908;2022-10-03T05:10:04;97851.38;;;7.92;76.57
21401;BME280;18038;50.166;18.908;2022-10-03T05:13:38;97856.16;;;7.97;77.05
21401;BME280;18038;50.166;18.908;2022-10-03T05:17:17;97861.84;;;7.94;77.59
21401;BME280;18038;50.166;18.908;2022-10-03T05:20:46;97854.94;;;7.85;78.08
21401;BME280;18038;50.166;18.908;2022-10-03T05:24:08;97858.34;;;7.78;78.16
21401;BME280;18038;50.166;18.908;2022-10-03T05:27:32;97858.25;;;7.72;78.44
21401;BME280;18038;50.166;18.908;2022-10-03T05:31:00;97858.50;;;7.62;78.28
21401;BME280;18038;50.166;18.908;2022-10-03T05:34:22;97851.81;;;7.66;78.61
21401;BME280;18038;50.166;18.908;2022-10-03T05:38:03;97846.03;;;7.63;78.41
21401;BME280;18038;50.166;18.908;2022-10-03T05:41:30;97845.41;;;7.75;77.93
21401;BME280;18038;50.166;18.908;2022-10-03T05:44:42;97853.13;;;7.85;77.26
21401;BME280;18038;50.166;18.908;2022-10-03T05:48:11;97849.75;;;7.91;77.19
21401;BME280;18038;50.166;18.908;2022-10-03T05:51:49;97841.50;;;8.01;76.53
21401;BME280;18038;50.166;18.908;2022-10-03T05:55:31;97852.22;;;7.93;76.56
21401;BME280;18038;50.166;18.908;2022-10-03T05:59:12;97858.47;;;7.85;76.73
21401;BME280;18038;50.166;18.908;2022-10-03T06:02:58;97868.19;;;7.93;76.93
21401;BME280;18038;50.166;18.908;2022-10-03T06:06:49;97874.13;;;7.95;76.43
21401;BME280;18038;50.166;18.908;2022-10-03T06:14:16;97877.81;;;7.94;76.13
21401;BME280;18038;50.166;18.908;2022-10-03T06:18:01;97881.94;;;7.96;76.72
21401;BME280;18038;50.166;18.908;2022-10-03T06:30:03;97892.38;;;7.98;76.10
21401;BME280;18038;50.166;18.908;2022-10-03T06:33:49;97891.94;;;7.94;76.13
21401;BME280;18038;50.166;18.908;2022-10-03T06:37:37;97898.47;;;8.07;76.16
21401;BME280;18038;50.166;18.908;2022-10-03T06:41:29;97891.13;;;8.09;75.43
21401;BME280;18038;50.166;18.908;2022-10-03T06:56:47;97902.13;;;8.50;73.86
21401;BME280;18038;50.166;18.908;2022-10-03T07:00:15;97899.06;;;8.53;73.71
21401;BME280;18038;50.166;18.908;2022-10-03T07:07:47;97900.59;;;8.77;73.02
21401;BME280;18038;50.166;18.908;2022-10-03T07:11:36;97902.81;;;8.74;71.34
21401;BME280;18038;50.166;18.908;2022-10-03T07:19:40;97923.38;;;8.80;72.40
21401;BME280;18038;50.166;18.908;2022-10-03T07:23:48;97913.47;;;8.74;71.80
21401;BME280;18038;50.166;18.908;2022-10-03T07:27:24;97910.31;;;8.85;71.98
21401;BME280;18038;50.166;18.908;2022-10-03T07:31:03;97899.66;;;8.85;71.19
21401;BME280;18038;50.166;18.908;2022-10-03T07:34:42;97913.25;;;9.05;70.79
21401;BME280;18038;50.166;18.908;2022-10-03T07:38:50;97901.00;;;9.10;70.04
21401;BME280;18038;50.166;18.908;2022-10-03T07:42:34;97909.22;;;9.30;69.65
21401;BME280;18038;50.166;18.908;2022-10-03T07:50:34;97918.16;;;8.86;73.66
21401;BME280;18038;50.166;18.908;2022-10-03T07:54:27;97921.34;;;8.82;74.84
21401;BME280;18038;50.166;18.908;2022-10-03T07:58:10;97915.56;;;9.51;73.47
21401;BME280;18038;50.166;18.908;2022-10-03T08:01:52;97910.50;;;9.84;71.81
21401;BME280;18038;50.166;18.908;2022-10-03T08:05:23;97902.28;;;9.86;71.05
21401;BME280;18038;50.166;18.908;2022-10-03T08:08:58;97907.38;;;9.52;71.01
21401;BME280;18038;50.166;18.908;2022-10-03T08:20:45;97906.84;;;9.64;70.59
21401;BME280;18038;50.166;18.908;2022-10-03T08:24:23;97915.59;;;9.79;70.52
21401;BME280;18038;50.166;18.908;2022-10-03T08:27:58;97906.16;;;10.05;69.40
21401;BME280;18038;50.166;18.908;2022-10-03T08:31:43;97910.38;;;9.92;69.65
21401;BME280;18038;50.166;18.908;2022-10-03T08:39:40;97911.66;;;9.75;68.78
21401;BME280;18038;50.166;18.908;2022-10-03T08:48:25;97906.88;;;9.92;68.99
21401;BME280;18038;50.166;18.908;2022-10-03T08:52:08;97908.84;;;9.83;69.69
21401;BME280;18038;50.166;18.908;2022-10-03T08:55:44;97920.44;;;9.69;70.61
21401;BME280;18038;50.166;18.908;2022-10-03T09:03:52;97900.75;;;10.61;66.40
21401;BME280;18038;50.166;18.908;2022-10-03T09:16:01;97896.78;;;11.05;64.10
21401;BME280;18038;50.166;18.908;2022-10-03T09:19:51;97904.34;;;10.88;64.69
21401;BME280;18038;50.166;18.908;2022-10-03T09:23:43;97907.69;;;10.20;68.73
21401;BME280;18038;50.166;18.908;2022-10-03T09:27:31;97909.66;;;10.12;70.33
21401;BME280;18038;50.166;18.908;2022-10-03T09:31:23;97912.50;;;9.75;71.25
21401;BME280;18038;50.166;18.908;2022-10-03T09:39:43;97918.53;;;9.20;72.87
21401;BME280;18038;50.166;18.908;2022-10-03T09:43:44;97919.81;;;9.24;73.99
21401;BME280;18038;50.166;18.908;2022-10-03T09:51:41;97929.34;;;8.97;75.21
21401;BME280;18038;50.166;18.908;2022-10-03T09:55:13;97926.75;;;9.03;76.28
21401;BME280;18038;50.166;18.908;2022-10-03T09:58:59;97932.34;;;9.08;75.33
21401;BME280;18038;50.166;18.908;2022-10-03T10:22:11;97919.50;;;10.05;71.57
21401;BME280;18038;50.166;18.908;2022-10-03T10:25:43;97926.16;;;10.50;71.25
21401;BME280;18038;50.166;18.908;2022-10-03T10:37:41;97930.22;;;10.39;69.62
21401;BME280;18038;50.166;18.908;2022-10-03T10:41:41;97932.28;;;10.16;69.73
21401;BME280;18038;50.166;18.908;2022-10-03T10:57:43;97938.03;;;10.13;71.16
21401;BME280;18038;50.166;18.908;2022-10-03T11:02:01;97928.53;;;10.73;68.77
21401;BME280;18038;50.166;18.908;2022-10-03T11:05:59;97941.53;;;10.83;68.59
21401;BME280;18038;50.166;18.908;2022-10-03T11:09:45;97932.63;;;10.69;67.23
21401;BME280;18038;50.166;18.908;2022-10-03T11:21:47;97958.78;;;10.39;68.62
21401;BME280;18038;50.166;18.908;2022-10-03T11:25:50;97952.69;;;10.24;69.57
21401;BME280;18038;50.166;18.908;2022-10-03T11:29:44;97954.13;;;9.98;70.03
21401;BME280;18038;50.166;18.908;2022-10-03T11:33:51;97957.47;;;9.79;70.74
21401;BME280;18038;50.166;18.908;2022-10-03T11:37:43;97961.97;;;9.57;71.23
21401;BME280;18038;50.166;18.908;2022-10-03T11:40:59;97955.75;;;9.49;72.01
21401;BME280;18038;50.166;18.908;2022-10-03T11:44:20;97962.97;;;9.56;71.29
21401;BME280;18038;50.166;18.908;2022-10-03T11:47:52;97952.41;;;9.62;71.74
21401;BME280;18038;50.166;18.908;2022-10-03T11:51:13;97952.41;;;9.62;71.66
21401;BME280;18038;50.166;18.908;2022-10-03T11:54:27;97960.19;;;9.64;71.05
21401;BME280;18038;50.166;18.908;2022-10-03T11:57:39;97972.75;;;9.48;71.75
21401;BME280;18038;50.166;18.908;2022-10-03T12:01:02;97978.81;;;9.57;71.91
21401;BME280;18038;50.166;18.908;2022-10-03T12:04:39;97978.28;;;9.47;73.32
21401;BME280;18038;50.166;18.908;2022-10-03T12:08:15;97987.50;;;9.44;73.73
21401;BME280;18038;50.166;18.908;2022-10-03T12:11:47;97973.53;;;9.42;74.79
21401;BME280;18038;50.166;18.908;2022-10-03T12:15:13;97970.22;;;9.40;74.97
21401;BME280;18038;50.166;18.908;2022-10-03T12:18:50;97984.06;;;9.14;75.59
21401;BME280;18038;50.166;18.908;2022-10-03T12:22:11;97978.66;;;9.07;76.31
21401;BME280;18038;50.166;18.908;2022-10-03T12:25:33;97984.38;;;8.90;76.43
21401;BME280;18038;50.166;18.908;2022-10-03T12:28:48;97992.66;;;8.95;77.96
21401;BME280;18038;50.166;18.908;2022-10-03T12:32:13;97989.22;;;9.01;75.93
21401;BME280;18038;50.166;18.908;2022-10-03T12:35:39;97993.94;;;8.99;75.93
21401;BME280;18038;50.166;18.908;2022-10-03T12:39:05;98008.25;;;9.13;76.62
21401;BME280;18038;50.166;18.908;2022-10-03T12:42:32;98002.56;;;9.01;75.20
21401;BME280;18038;50.166;18.908;2022-10-03T12:45:49;98001.72;;;9.15;75.02
21401;BME280;18038;50.166;18.908;2022-10-03T12:49:14;98009.34;;;9.03;75.56
21401;BME280;18038;50.166;18.908;2022-10-03T12:52:29;98012.28;;;9.08;75.60
21401;BME280;18038;50.166;18.908;2022-10-03T12:55:49;98011.81;;;9.20;75.16
21401;BME280;18038;50.166;18.908;2022-10-03T12:59:14;98022.13;;;9.23;74.60
21401;BME280;18038;50.166;18.908;2022-10-03T13:02:38;98014.94;;;9.23;72.96
21401;BME280;18038;50.166;18.908;2022-10-03T13:10:10;98024.56;;;9.39;73.67
21401;BME280;18038;50.166;18.908;2022-10-03T13:13:32;98022.63;;;9.33;73.89
21401;BME280;18038;50.166;18.908;2022-10-03T13:17:03;98028.38;;;9.51;73.80
21401;BME280;18038;50.166;18.908;2022-10-03T13:20:27;98026.44;;;9.60;72.95
21401;BME280;18038;50.166;18.908;2022-10-03T13:23:46;98030.81;;;9.68;72.02
21401;BME280;18038;50.166;18.908;2022-10-03T13:27:15;98021.38;;;9.50;73.02
21401;BME280;18038;50.166;18.908;2022-10-03T13:30:45;98019.38;;;9.52;73.09
21401;BME280;18038;50.166;18.908;2022-10-03T13:34:04;98012.84;;;9.55;72.39
21401;BME280;18038;50.166;18.908;2022-10-03T13:37:30;98005.53;;;9.64;73.04
21401;BME280;18038;50.166;18.908;2022-10-03T13:40:54;98009.22;;;9.63;73.58
21401;BME280;18038;50.166;18.908;2022-10-03T13:44:14;98006.34;;;9.64;73.36
21401;BME280;18038;50.166;18.908;2022-10-03T13:47:39;98002.22;;;9.62;73.90
21401;BME280;18038;50.166;18.908;2022-10-03T13:50:58;98009.75;;;9.73;73.74
21401;BME280;18038;50.166;18.908;2022-10-03T13:54:16;98005.09;;;9.60;73.97
21401;BME280;18038;50.166;18.908;2022-10-03T13:57:58;98005.41;;;9.72;74.40
21401;BME280;18038;50.166;18.908;2022-10-03T14:01:36;98012.63;;;9.57;74.75
21401;BME280;18038;50.166;18.908;2022-10-03T14:09:02;98021.13;;;9.45;75.66
21401;BME280;18038;50.166;18.908;2022-10-03T14:12:48;98023.19;;;9.28;76.58
21401;BME280;18038;50.166;18.908;2022-10-03T14:16:13;98020.16;;;9.31;76.34
21401;BME280;18038;50.166;18.908;2022-10-03T14:19:38;98026.50;;;9.30;75.89
21401;BME280;18038;50.166;18.908;2022-10-03T14:23:17;98023.25;;;9.35;76.42
21401;BME280;18038;50.166;18.908;2022-10-03T14:26:49;98020.66;;;9.20;76.16
21401;BME280;18038;50.166;18.908;2022-10-03T14:30:04;98025.13;;;9.20;76.05
21401;BME280;18038;50.166;18.908;2022-10-03T14:33:23;98025.59;;;9.23;76.46
21401;BME280;18038;50.166;18.908;2022-10-03T14:36:44;98027.72;;;9.28;76.51
21401;BME280;18038;50.166;18.908;2022-10-03T14:40:11;98020.66;;;9.20;76.12
21401;BME280;18038;50.166;18.908;2022-10-03T14:43:40;98035.56;;;9.15;75.69
21401;BME280;18038;50.166;18.908;2022-10-03T14:46:57;98030.78;;;9.10;76.31
21401;BME280;18038;50.166;18.908;2022-10-03T14:50:16;98042.53;;;9.16;76.24
21401;BME280;18038;50.166;18.908;2022-10-03T14:53:27;98047.19;;;9.14;76.13
21401;BME280;18038;50.166;18.908;2022-10-03T14:56:42;98064.22;;;9.13;76.31
21401;BME280;18038;50.166;18.908;2022-10-03T14:59:54;98059.59;;;9.06;75.73
21401;BME280;18038;50.166;18.908;2022-10-03T15:03:23;98054.53;;;9.12;75.61
21401;BME280;18038;50.166;18.908;2022-10-03T15:06:48;98060.81;;;8.89;75.98
21401;BME280;18038;50.166;18.908;2022-10-03T15:10:01;98072.53;;;8.80;76.51
21401;BME280;18038;50.166;18.908;2022-10-03T15:13:11;98072.44;;;8.73;77.17
21401;BME280;18038;50.166;18.908;2022-10-03T15:16:25;98077.13;;;8.71;77.63
21401;BME280;18038;50.166;18.908;2022-10-03T15:19:38;98074.28;;;8.73;77.55
21401;BME280;18038;50.166;18.908;2022-10-03T15:22:51;98073.34;;;8.65;77.69
21401;BME280;18038;50.166;18.908;2022-10-03T15:26:01;98075.66;;;8.69;78.00
21401;BME280;18038;50.166;18.908;2022-10-03T15:29:16;98069.03;;;8.64;77.90
21401;BME280;18038;50.166;18.908;2022-10-03T15:32:33;98058.94;;;8.60;78.20
21401;BME280;18038;50.166;18.908;2022-10-03T15:35:47;98069.38;;;8.61;77.71
21401;BME280;18038;50.166;18.908;2022-10-03T15:38:58;98068.56;;;8.61;77.66
21401;BME280;18038;50.166;18.908;2022-10-03T15:42:20;98080.41;;;8.58;77.34
21401;BME280;18038;50.166;18.908;2022-10-03T15:45:31;98082.97;;;8.66;78.01
21401;BME280;18038;50.166;18.908;2022-10-03T15:48:52;98091.53;;;8.77;77.36
21401;BME280;18038;50.166;18.908;2022-10-03T15:52:09;98083.91;;;8.74;76.76
21401;BME280;18038;50.166;18.908;2022-10-03T15:55:28;98087.03;;;8.62;77.38
21401;BME280;18038;50.166;18.908;2022-10-03T15:58:48;98081.59;;;8.56;77.35
21401;BME280;18038;50.166;18.908;2022-10-03T16:02:14;98081.59;;;8.56;76.71
21401;BME280;18038;50.166;18.908;2022-10-03T16:05:31;98090.06;;;8.59;76.94
21401;BME280;18038;50.166;18.908;2022-10-03T16:08:54;98090.97;;;8.66;76.76
21401;BME280;18038;50.166;18.908;2022-10-03T16:12:45;98096.00;;;8.61;76.68
21401;BME280;18038;50.166;18.908;2022-10-03T16:16:15;98105.03;;;8.60;76.63
21401;BME280;18038;50.166;18.908;2022-10-03T16:19:37;98097.31;;;8.65;76.48
21401;BME280;18038;50.166;18.908;2022-10-03T16:22:51;98099.63;;;8.69;75.76
21401;BME280;18038;50.166;18.908;2022-10-03T16:26:03;98107.81;;;8.67;75.76
21401;BME280;18038;50.166;18.908;2022-10-03T16:29:16;98111.44;;;8.66;75.81
21401;BME280;18038;50.166;18.908;2022-10-03T16:32:38;98109.63;;;8.66;76.16
21401;BME280;18038;50.166;18.908;2022-10-03T16:36:00;98099.69;;;8.60;75.97
21401;BME280;18038;50.166;18.908;2022-10-03T16:39:18;98111.06;;;8.54;75.77
21401;BME280;18038;50.166;18.908;2022-10-03T16:42:41;98105.03;;;8.60;75.78
21401;BME280;18038;50.166;18.908;2022-10-03T16:45:52;98119.06;;;8.54;76.01
21401;BME280;18038;50.166;18.908;2022-10-03T16:49:02;98108.94;;;8.50;76.29
21401;BME280;18038;50.166;18.908;2022-10-03T16:52:31;98118.03;;;8.55;76.26
21401;BME280;18038;50.166;18.908;2022-10-03T16:55:54;98114.66;;;8.61;76.56
21401;BME280;18038;50.166;18.908;2022-10-03T16:59:28;98116.63;;;8.68;76.06
21401;BME280;18038;50.166;18.908;2022-10-03T17:02:36;98122.09;;;8.66;76.32
21401;BME280;18038;50.166;18.908;2022-10-03T17:05:46;98119.00;;;8.62;76.62
21401;BME280;18038;50.166;18.908;2022-10-03T17:09:33;98118.50;;;8.59;76.91
21401;BME280;18038;50.166;18.908;2022-10-03T17:12:56;98113.66;;;8.62;76.79
21401;BME280;18038;50.166;18.908;2022-10-03T17:16:13;98125.38;;;8.53;77.60
21401;BME280;18038;50.166;18.908;2022-10-03T17:19:34;98113.09;;;8.52;78.73
21401;BME280;18038;50.166;18.908;2022-10-03T17:22:54;98115.63;;;8.45;78.30
21401;BME280;18038;50.166;18.908;2022-10-03T17:26:11;98115.63;;;8.45;79.13
21401;BME280;18038;50.166;18.908;2022-10-03T17:29:32;98120.91;;;8.54;78.61
21401;BME280;18038;50.166;18.908;2022-10-03T17:32:55;98121.00;;;8.60;78.92
21401;BME280;18038;50.166;18.908;2022-10-03T17:36:49;98113.25;;;8.51;78.72
21401;BME280;18038;50.166;18.908;2022-10-03T17:40:20;98131.81;;;8.59;78.73
21401;BME280;18038;50.166;18.908;2022-10-03T17:43:38;98133.66;;;8.58;78.43
21401;BME280;18038;50.166;18.908;2022-10-03T17:46:58;98130.59;;;8.47;78.63
21401;BME280;18038;50.166;18.908;2022-10-03T17:50:14;98140.44;;;8.46;78.35
21401;BME280;18038;50.166;18.908;2022-10-03T17:53:29;98134.03;;;8.55;78.20
21401;BME280;18038;50.166;18.908;2022-10-03T17:56:44;98136.38;;;8.50;78.31
21401;BME280;18038;50.166;18.908;2022-10-03T18:00:00;98135.31;;;8.59;78.08
21401;BME280;18038;50.166;18.908;2022-10-03T18:03:20;98132.09;;;8.64;77.86
21401;BME280;18038;50.166;18.908;2022-10-03T18:06:45;98137.25;;;8.65;78.05
21401;BME280;18038;50.166;18.908;2022-10-03T18:09:55;98137.88;;;8.53;78.66
21401;BME280;18038;50.166;18.908;2022-10-03T18:13:09;98134.91;;;8.48;78.71
21401;BME280;18038;50.166;18.908;2022-10-03T18:16:28;98140.06;;;8.49;79.03
21401;BME280;18038;50.166;18.908;2022-10-03T18:20:01;98137.03;;;8.52;78.89
21401;BME280;18038;50.166;18.908;2022-10-03T18:23:37;98150.06;;;8.47;78.58
21401;BME280;18038;50.166;18.908;2022-10-03T18:27:08;98149.03;;;8.48;79.19
21401;BME280;18038;50.166;18.908;2022-10-03T18:30:49;98150.19;;;8.54;78.97
21401;BME280;18038;50.166;18.908;2022-10-03T18:34:04;98144.81;;;8.39;78.93
21401;BME280;18038;50.166;18.908;2022-10-03T18:37:51;98142.50;;;8.36;78.89
21401;BME280;18038;50.166;18.908;2022-10-03T18:41:05;98146.22;;;8.50;78.93
21401;BME280;18038;50.166;18.908;2022-10-03T18:44:18;98152.50;;;8.57;78.60
21401;BME280;18038;50.166;18.908;2022-10-03T18:47:33;98149.91;;;8.63;79.02
21401;BME280;18038;50.166;18.908;2022-10-03T18:50:56;98154.44;;;8.63;79.55
21401;BME280;18038;50.166;18.908;2022-10-03T18:54:21;98140.75;;;8.66;78.95
21401;BME280;18038;50.166;18.908;2022-10-03T18:57:48;98138.97;;;8.43;79.06
21401;BME280;18038;50.166;18.908;2022-10-03T19:01:12;98149.59;;;8.43;79.78
21401;BME280;18038;50.166;18.908;2022-10-03T19:04:35;98139.56;;;8.31;79.19
21401;BME280;18038;50.166;18.908;2022-10-03T19:07:50;98137.31;;;8.19;79.60
21401;BME280;18038;50.166;18.908;2022-10-03T19:11:21;98166.28;;;8.14;80.10
21401;BME280;18038;50.166;18.908;2022-10-03T19:14:39;98164.84;;;8.27;80.41
21401;BME280;18038;50.166;18.908;2022-10-03T19:18:11;98173.66;;;8.27;79.98
21401;BME280;18038;50.166;18.908;2022-10-03T19:21:26;98170.84;;;8.29;79.89
21401;BME280;18038;50.166;18.908;2022-10-03T19:24:39;98171.53;;;8.22;80.16
21401;BME280;18038;50.166;18.908;2022-10-03T19:28:12;98165.88;;;8.26;79.91
21401;BME280;18038;50.166;18.908;2022-10-03T19:31:25;98182.97;;;8.31;79.87
21401;BME280;18038;50.166;18.908;2022-10-03T19:34:37;98178.88;;;8.20;79.82
21401;BME280;18038;50.166;18.908;2022-10-03T19:37:50;98172.13;;;8.10;79.64
21401;BME280;18038;50.166;18.908;2022-10-03T19:41:02;98181.75;;;8.11;79.97
21401;BME280;18038;50.166;18.908;2022-10-03T19:44:23;98185.91;;;8.13;79.51
21401;BME280;18038;50.166;18.908;2022-10-03T19:47:35;98181.59;;;8.12;79.87
21401;BME280;18038;50.166;18.908;2022-10-03T19:50:42;98174.66;;;8.03;79.47
21401;BME280;18038;50.166;18.908;2022-10-03T19:53:51;98176.97;;;8.06;79.55
21401;BME280;18038;50.166;18.908;2022-10-03T19:57:02;98186.47;;;8.00;79.64
21401;BME280;18038;50.166;18.908;2022-10-03T20:00:27;98186.44;;;8.09;79.88
21401;BME280;18038;50.166;18.908;2022-10-03T20:03:39;98183.00;;;8.23;79.21
21401;BME280;18038;50.166;18.908;2022-10-03T20:06:57;98182.06;;;8.16;78.92
21401;BME280;18038;50.166;18.908;2022-10-03T20:10:20;98178.28;;;8.10;78.78
21401;BME280;18038;50.166;18.908;2022-10-03T20:13:41;98175.00;;;8.00;79.30
21401;BME280;18038;50.166;18.908;2022-10-03T20:16:56;98185.91;;;8.13;78.81
21401;BME280;18038;50.166;18.908;2022-10-03T20:20:10;98182.25;;;8.14;79.43
21401;BME280;18038;50.166;18.908;2022-10-03T20:23:26;98176.47;;;8.03;79.40
21401;BME280;18038;50.166;18.908;2022-10-03T20:26:43;98181.41;;;8.14;79.36
21401;BME280;18038;50.166;18.908;2022-10-03T20:30:06;98172.13;;;8.10;79.47
21401;BME280;18038;50.166;18.908;2022-10-03T20:33:34;98174.00;;;8.01;79.30
21401;BME280;18038;50.166;18.908;2022-10-03T20:36:45;98176.72;;;8.16;79.28
21401;BME280;18038;50.166;18.908;2022-10-03T20:40:04;98182.56;;;8.19;79.08
21401;BME280;18038;50.166;18.908;2022-10-03T20:43:34;98181.19;;;8.23;78.95
21401;BME280;18038;50.166;18.908;2022-10-03T20:46:49;98178.22;;;8.18;78.83
21401;BME280;18038;50.166;18.908;2022-10-03T20:50:03;98175.50;;;8.27;78.51
21401;BME280;18038;50.166;18.908;2022-10-03T20:53:18;98176.97;;;8.29;78.58
21401;BME280;18038;50.166;18.908;2022-10-03T20:56:39;98173.50;;;8.29;78.47
21401;BME280;18038;50.166;18.908;2022-10-03T21:00:03;98176.50;;;8.26;78.40
21401;BME280;18038;50.166;18.908;2022-10-03T21:03:22;98171.06;;;8.19;78.71
21401;BME280;18038;50.166;18.908;2022-10-03T21:06:52;98172.47;;;8.30;78.96
21401;BME280;18038;50.166;18.908;2022-10-03T21:10:12;98173.84;;;8.26;78.61